createdAt,value
2022-12-20T00:00:00.131Z,1.87
2022-12-20T00:02:02.463Z,1.88
2022-12-20T00:04:08.175Z,1.83
2022-12-20T00:06:11.235Z,1.86
2022-12-20T00:08:13.598Z,1.84
2022-12-20T00:10:15.269Z,1.84
2022-12-20T00:12:17.463Z,1.69
2022-12-20T00:14:19.259Z,1.52
2022-12-20T00:16:24.630Z,1.52
2022-12-20T00:18:26.358Z,1.55
2022-12-20T00:20:28.559Z,1.57
2022-12-20T00:22:31.278Z,1.56
2022-12-20T00:24:33.173Z,1.37
2022-12-20T00:26:35.969Z,1.43
2022-12-20T00:28:38.884Z,1.50
2022-12-20T00:30:40.593Z,1.53
2022-12-20T00:32:42.879Z,1.56
2022-12-20T00:34:44.643Z,1.56
2022-12-20T00:36:46.390Z,1.55
2022-12-20T00:38:50.051Z,1.61
2022-12-20T00:41:13.349Z,1.61
2022-12-20T00:43:15.038Z,1.55
2022-12-20T00:45:16.840Z,1.53
2022-12-20T00:47:18.653Z,1.47
2022-12-20T00:49:20.465Z,1.42
2022-12-20T00:51:26.250Z,1.45
2022-12-20T00:53:28.705Z,1.53
2022-12-20T00:55:30.331Z,1.58
2022-12-20T00:57:33.387Z,1.62
2022-12-20T00:59:36.531Z,1.65
2022-12-20T01:01:38.201Z,1.59
2022-12-20T01:03:40.204Z,1.53
2022-12-20T01:05:54.411Z,1.46
2022-12-20T01:07:56.043Z,1.51
2022-12-20T01:09:57.693Z,1.54
2022-12-20T01:11:59.395Z,1.57
2022-12-20T01:14:06.041Z,1.55
2022-12-20T01:16:09.891Z,1.60
2022-12-20T01:18:11.428Z,1.60
2022-12-20T01:20:13.331Z,1.55
2022-12-20T01:22:14.939Z,1.51
2022-12-20T01:24:18.678Z,1.53
2022-12-20T01:26:22.912Z,1.53
2022-12-20T01:28:24.584Z,1.57
2022-12-20T01:30:26.331Z,1.53
2022-12-20T01:32:28.140Z,1.50
2022-12-20T01:34:29.813Z,1.58
2022-12-20T01:36:36.093Z,1.52
2022-12-20T01:38:37.985Z,1.55
2022-12-20T01:40:39.673Z,1.56
2022-12-20T01:42:41.331Z,1.52
2022-12-20T01:44:43.066Z,1.47
2022-12-20T01:46:47.172Z,1.48
2022-12-20T01:49:16.536Z,1.36
2022-12-20T01:51:19.307Z,1.32
2022-12-20T01:53:22.703Z,1.29
2022-12-20T01:55:25.947Z,1.12
2022-12-20T01:57:32.137Z,1.08
2022-12-20T01:59:35.821Z,1.13
2022-12-20T02:01:37.897Z,1.18
2022-12-20T02:03:40.629Z,1.25
2022-12-20T02:05:48.056Z,1.09
2022-12-20T02:07:54.350Z,1.10
2022-12-20T02:09:57.450Z,1.16
2022-12-20T02:12:02.430Z,1.19
2022-12-20T02:14:10.522Z,1.18
2022-12-20T02:16:15.709Z,1.25
2022-12-20T02:18:22.625Z,1.30
2022-12-20T02:20:48.161Z,1.25
2022-12-20T02:23:17.019Z,1.27
2022-12-20T02:25:27.686Z,1.31
2022-12-20T02:28:14.450Z,1.41
2022-12-20T02:30:25.005Z,1.41
2022-12-20T02:32:30.936Z,1.41
2022-12-20T02:34:34.324Z,1.42
2022-12-20T02:36:36.330Z,1.40
2022-12-20T02:38:42.988Z,1.41
2022-12-20T02:40:45.314Z,1.46
2022-12-20T02:42:48.661Z,1.45
2022-12-20T02:45:15.925Z,1.49
2022-12-20T02:47:41.185Z,1.43
2022-12-20T02:49:43.233Z,1.39
2022-12-20T02:51:47.524Z,1.36
2022-12-20T02:53:49.351Z,1.32
2022-12-20T02:56:15.189Z,1.32
2022-12-20T02:58:31.900Z,1.35
2022-12-20T03:00:38.853Z,1.44
2022-12-20T03:03:00.069Z,1.45
2022-12-20T03:05:02.792Z,1.43
2022-12-20T03:07:07.722Z,1.42
2022-12-20T03:09:10.541Z,1.43
2022-12-20T03:11:12.269Z,1.45
2022-12-20T03:13:14.871Z,1.47
2022-12-20T03:15:16.688Z,1.46
2022-12-20T03:17:18.741Z,1.48
2022-12-20T03:19:20.706Z,1.52
2022-12-20T03:21:22.506Z,1.51
2022-12-20T03:23:24.443Z,1.49
2022-12-20T03:25:26.456Z,1.41
2022-12-20T03:27:28.247Z,1.44
2022-12-20T03:29:29.921Z,1.42
2022-12-20T03:31:31.843Z,1.41
2022-12-20T03:33:33.759Z,1.33
2022-12-20T03:35:35.582Z,1.28
2022-12-20T03:37:37.349Z,1.30
2022-12-20T03:39:38.982Z,1.37
2022-12-20T03:41:42.584Z,1.43
2022-12-20T03:43:45.815Z,1.45
2022-12-20T03:45:47.841Z,1.45
2022-12-20T03:47:49.524Z,1.49
2022-12-20T03:49:52.135Z,1.46
2022-12-20T03:51:53.878Z,1.51
2022-12-20T03:53:55.752Z,1.43
2022-12-20T03:55:57.502Z,1.42
2022-12-20T03:58:00.359Z,1.47
2022-12-20T04:00:02.234Z,1.46
2022-12-20T04:02:04.485Z,1.43
2022-12-20T04:04:08.397Z,1.44
2022-12-20T04:06:10.043Z,1.41
2022-12-20T04:08:12.017Z,1.36
2022-12-20T04:10:15.298Z,1.28
2022-12-20T04:12:16.947Z,1.22
2022-12-20T04:14:18.648Z,1.24
2022-12-20T04:16:23.045Z,1.21
2022-12-20T04:18:24.727Z,1.18
2022-12-20T04:20:26.565Z,1.17
2022-12-20T04:22:28.178Z,1.14
2022-12-20T04:24:29.800Z,0.96
2022-12-20T04:26:31.596Z,0.94
2022-12-20T04:28:33.718Z,0.90
2022-12-20T04:30:36.619Z,0.94
2022-12-20T04:32:38.410Z,1.01
2022-12-20T04:34:40.082Z,1.05
2022-12-20T04:36:41.713Z,1.07
2022-12-20T04:38:43.382Z,1.06
2022-12-20T04:40:45.007Z,1.12
2022-12-20T04:42:46.698Z,1.02
2022-12-20T04:44:49.813Z,1.04
2022-12-20T04:46:51.620Z,1.03
2022-12-20T04:48:58.936Z,1.03
2022-12-20T04:51:01.140Z,1.06
2022-12-20T04:53:23.862Z,1.14
2022-12-20T04:55:25.534Z,1.14
2022-12-20T04:57:27.192Z,0.96
2022-12-20T04:59:28.887Z,0.90
2022-12-20T05:01:30.602Z,0.91
2022-12-20T05:03:32.435Z,0.84
2022-12-20T05:05:34.205Z,0.85
2022-12-20T05:07:36.969Z,0.90
2022-12-20T05:09:38.833Z,0.87
2022-12-20T05:11:40.557Z,0.94
2022-12-20T05:13:42.309Z,0.94
2022-12-20T05:15:44.080Z,0.93
2022-12-20T05:17:45.908Z,0.90
2022-12-20T05:19:47.888Z,0.93
2022-12-20T05:22:07.768Z,0.84
2022-12-20T05:24:28.312Z,0.81
2022-12-20T05:26:32.952Z,0.77
2022-12-20T05:28:34.729Z,0.72
2022-12-20T05:30:36.442Z,0.63
2022-12-20T05:32:38.389Z,0.71
2022-12-20T05:34:40.062Z,0.74
2022-12-20T05:36:41.741Z,0.75
2022-12-20T05:38:43.391Z,0.74
2022-12-20T05:40:47.950Z,0.81
2022-12-20T05:42:49.579Z,0.77
2022-12-20T05:44:51.669Z,0.75
2022-12-20T05:46:53.423Z,0.72
2022-12-20T05:48:55.277Z,0.72
2022-12-20T05:50:56.944Z,0.73
2022-12-20T05:52:58.577Z,0.73
2022-12-20T05:55:02.407Z,0.70
2022-12-20T05:57:04.137Z,0.72
2022-12-20T05:59:06.082Z,0.63
2022-12-20T06:01:10.416Z,0.71
2022-12-20T06:03:12.326Z,0.71
2022-12-20T06:05:13.998Z,0.70
2022-12-20T06:07:15.609Z,0.70
2022-12-20T06:09:17.323Z,0.61
2022-12-20T06:11:20.361Z,0.62
2022-12-20T06:13:24.829Z,0.65
2022-12-20T06:15:27.832Z,0.65
2022-12-20T06:17:29.485Z,0.65
2022-12-20T06:19:31.229Z,0.74
2022-12-20T06:21:32.913Z,0.77
2022-12-20T06:23:34.621Z,0.78
2022-12-20T06:25:38.329Z,0.79
2022-12-20T06:27:39.989Z,0.85
2022-12-20T06:29:41.801Z,0.95
2022-12-20T06:31:43.973Z,1.51
2022-12-20T06:33:45.688Z,2.43
2022-12-20T06:35:47.497Z,2.83
2022-12-20T06:37:49.137Z,3.31
2022-12-20T06:39:50.815Z,3.50
2022-12-20T06:41:52.516Z,3.46
2022-12-20T06:43:54.225Z,3.26
2022-12-20T06:45:57.501Z,2.94
2022-12-20T06:47:59.239Z,2.69
2022-12-20T06:50:00.892Z,2.59
2022-12-20T06:52:02.537Z,2.52
2022-12-20T06:54:04.220Z,2.09
2022-12-20T06:56:06.261Z,1.68
2022-12-20T06:58:07.929Z,1.57
2022-12-20T07:00:10.563Z,1.45
2022-12-20T07:02:12.768Z,1.46
2022-12-20T07:04:14.560Z,1.46
2022-12-20T07:06:16.533Z,1.41
2022-12-20T07:08:18.118Z,1.37
2022-12-20T07:10:19.807Z,1.42
2022-12-20T07:12:22.295Z,1.40
2022-12-20T07:14:24.352Z,1.42
2022-12-20T07:16:29.242Z,1.52
2022-12-20T07:18:31.643Z,1.59
2022-12-20T07:20:34.857Z,1.68
2022-12-20T07:22:36.640Z,1.80
2022-12-20T07:24:39.288Z,1.76
2022-12-20T07:26:41.214Z,1.66
2022-12-20T07:28:43.407Z,1.69
2022-12-20T07:30:46.613Z,1.54
2022-12-20T07:32:49.368Z,1.36
2022-12-20T07:34:51.004Z,1.30
2022-12-20T07:36:52.754Z,1.31
2022-12-20T07:38:54.585Z,1.17
2022-12-20T07:40:56.290Z,1.27
2022-12-20T07:42:57.959Z,1.21
2022-12-20T07:44:59.616Z,1.31
2022-12-20T07:47:01.451Z,1.47
2022-12-20T07:49:03.138Z,1.58
2022-12-20T07:51:10.581Z,1.77
2022-12-20T07:53:12.362Z,1.97
2022-12-20T07:55:15.285Z,2.07
2022-12-20T07:57:26.017Z,2.19
2022-12-20T07:59:31.345Z,2.14
2022-12-20T08:01:33.192Z,2.10
2022-12-20T08:03:41.561Z,2.18
2022-12-20T08:05:46.150Z,2.19
2022-12-20T08:07:51.137Z,2.34
2022-12-20T08:09:57.416Z,2.24
2022-12-20T08:11:59.487Z,2.21
2022-12-20T08:14:01.546Z,2.31
2022-12-20T08:16:03.344Z,2.42
2022-12-20T08:18:06.392Z,2.33
2022-12-20T08:20:09.025Z,2.13
2022-12-20T08:22:10.650Z,2.01
2022-12-20T08:24:12.327Z,1.86
2022-12-20T08:26:14.381Z,1.69
2022-12-20T08:28:16.262Z,1.72
2022-12-20T08:30:19.192Z,1.90
2022-12-20T08:32:21.440Z,2.15
2022-12-20T08:34:23.955Z,2.34
2022-12-20T08:36:26.264Z,2.53
2022-12-20T08:38:33.979Z,2.67
2022-12-20T08:40:35.617Z,2.89
2022-12-20T08:42:37.359Z,3.03
2022-12-20T08:44:39.582Z,3.21
2022-12-20T08:46:41.567Z,3.37
2022-12-20T08:48:43.236Z,3.46
2022-12-20T08:50:45.606Z,3.46
2022-12-20T08:52:47.581Z,3.31
2022-12-20T08:54:49.322Z,2.75
2022-12-20T08:56:52.343Z,2.73
2022-12-20T08:58:54.931Z,2.84
2022-12-20T09:01:06.356Z,3.08
2022-12-20T09:03:10.227Z,3.30
2022-12-20T09:05:12.109Z,3.45
2022-12-20T09:07:13.817Z,3.66
2022-12-20T09:09:16.565Z,3.90
2022-12-20T09:11:23.587Z,4.02
2022-12-20T09:13:25.325Z,3.82
2022-12-20T09:15:28.152Z,3.89
2022-12-20T09:17:30.202Z,4.07
2022-12-20T09:19:32.052Z,4.23
2022-12-20T09:21:34.871Z,4.31
2022-12-20T09:23:37.433Z,4.46
2022-12-20T09:25:39.274Z,4.51
2022-12-20T09:27:40.955Z,4.59
2022-12-20T09:29:42.970Z,4.59
2022-12-20T09:31:45.189Z,4.63
2022-12-20T09:33:47.100Z,4.77
2022-12-20T09:35:48.807Z,4.76
2022-12-20T09:37:50.424Z,4.87
2022-12-20T09:39:52.242Z,4.95
2022-12-20T09:41:54.322Z,4.96
2022-12-20T09:43:57.960Z,4.85
2022-12-20T09:46:02.658Z,4.90
2022-12-20T09:48:05.882Z,4.88
2022-12-20T09:50:08.204Z,4.93
2022-12-20T09:52:47.180Z,4.89
2022-12-20T09:55:10.365Z,4.92
2022-12-20T09:57:22.140Z,4.96
2022-12-20T09:59:25.238Z,4.84
2022-12-20T10:01:36.238Z,4.35
2022-12-20T10:03:40.033Z,3.99
2022-12-20T10:05:54.750Z,3.68
2022-12-20T10:08:23.956Z,3.87
2022-12-20T10:10:45.848Z,3.65
2022-12-20T10:13:14.422Z,3.41
2022-12-20T10:15:19.226Z,3.76
2022-12-20T10:17:44.840Z,3.61
2022-12-20T10:19:59.409Z,3.52
2022-12-20T10:22:26.695Z,3.74
2022-12-20T10:24:31.246Z,3.95
2022-12-20T10:26:33.420Z,3.91
2022-12-20T10:28:36.053Z,3.74
2022-12-20T10:30:37.708Z,3.56
2022-12-20T10:32:40.271Z,3.07
2022-12-20T10:34:52.511Z,2.83
2022-12-20T10:37:14.524Z,2.90
2022-12-20T10:39:16.231Z,3.23
2022-12-20T10:41:22.254Z,3.51
2022-12-20T10:43:25.185Z,3.38
2022-12-20T10:45:36.660Z,3.25
2022-12-20T10:47:42.110Z,3.22
2022-12-20T10:49:43.866Z,3.25
2022-12-20T10:51:53.116Z,3.54
2022-12-20T10:53:59.679Z,3.69
2022-12-20T10:56:21.086Z,3.89
2022-12-20T10:58:30.380Z,3.93
2022-12-20T11:00:33.212Z,3.74
2022-12-20T11:02:42.430Z,3.52
2022-12-20T11:05:01.040Z,3.45
2022-12-20T11:07:14.026Z,3.56
2022-12-20T11:09:33.770Z,3.47
2022-12-20T11:11:35.600Z,3.49
2022-12-20T11:13:37.437Z,3.52
2022-12-20T11:15:49.303Z,3.48
2022-12-20T11:17:58.537Z,3.73
2022-12-20T11:20:26.590Z,3.99
2022-12-20T11:22:43.475Z,4.36
2022-12-20T11:25:12.750Z,4.65
2022-12-20T11:27:24.462Z,4.95
2022-12-20T11:30:11.352Z,5.23
2022-12-20T11:32:48.656Z,5.37
2022-12-20T11:35:20.956Z,5.45
2022-12-20T11:37:27.079Z,5.62
2022-12-20T11:39:48.864Z,5.79
2022-12-20T11:42:01.160Z,5.84
2022-12-20T11:44:25.158Z,5.89
2022-12-20T11:46:40.972Z,5.93
2022-12-20T11:48:54.263Z,5.93
2022-12-20T11:51:07.576Z,5.86
2022-12-20T11:53:20.418Z,5.91
2022-12-20T11:55:27.669Z,5.92
2022-12-20T11:57:54.891Z,5.88
2022-12-20T11:59:59.041Z,5.52
2022-12-20T12:02:23.389Z,5.45
2022-12-20T12:04:31.792Z,5.49
2022-12-20T12:06:40.100Z,5.44
2022-12-20T12:08:47.100Z,5.48
2022-12-20T12:11:32.271Z,5.14
2022-12-20T12:13:36.571Z,5.09
2022-12-20T12:15:48.775Z,4.37
2022-12-20T12:18:06.086Z,4.51
2022-12-20T12:20:25.795Z,4.75
2022-12-20T12:22:33.364Z,5.06
2022-12-20T12:24:43.984Z,5.37
2022-12-20T12:26:45.681Z,5.62
2022-12-20T12:28:58.375Z,5.78
2022-12-20T12:31:07.269Z,5.90
2022-12-20T12:33:22.145Z,5.86
2022-12-20T12:35:35.003Z,5.59
2022-12-20T12:37:51.401Z,4.91
2022-12-20T12:40:37.128Z,4.82
2022-12-20T12:43:06.853Z,5.13
2022-12-20T12:45:29.341Z,5.37
2022-12-20T12:47:39.212Z,5.59
2022-12-20T12:49:41.217Z,5.78
2022-12-20T12:51:50.169Z,5.89
2022-12-20T12:53:54.115Z,5.85
2022-12-20T12:56:12.887Z,5.79
2022-12-20T12:58:23.560Z,5.82
2022-12-20T13:00:59.370Z,5.84
2022-12-20T13:03:06.074Z,5.91
2022-12-20T13:05:10.626Z,5.93
2022-12-20T13:07:33.959Z,5.97
2022-12-20T13:09:37.834Z,6.02
2022-12-20T13:11:46.235Z,5.99
2022-12-20T13:13:48.684Z,6.02
2022-12-20T13:15:51.545Z,6.07
2022-12-20T13:18:00.530Z,6.03
2022-12-20T13:20:02.318Z,6.06
2022-12-20T13:22:13.388Z,6.09
2022-12-20T13:24:38.242Z,6.13
2022-12-20T13:26:51.060Z,6.14
2022-12-20T13:28:53.008Z,6.16
2022-12-20T13:31:04.907Z,6.20
2022-12-20T13:33:25.879Z,6.14
2022-12-20T13:35:47.778Z,6.14
2022-12-20T13:38:04.086Z,6.11
2022-12-20T13:40:06.719Z,5.96
2022-12-20T13:42:34.474Z,5.89
2022-12-20T13:44:41.505Z,5.89
2022-12-20T13:46:46.843Z,5.89
2022-12-20T13:48:54.232Z,5.85
2022-12-20T13:50:57.030Z,5.81
2022-12-20T13:52:59.231Z,5.77
2022-12-20T13:55:05.529Z,5.78
2022-12-20T13:57:08.096Z,5.74
2022-12-20T13:59:32.332Z,5.73
2022-12-20T14:01:36.215Z,5.70
2022-12-20T14:03:48.138Z,5.58
2022-12-20T14:06:01.699Z,5.52
2022-12-20T14:08:20.453Z,5.44
2022-12-20T14:10:27.774Z,5.41
2022-12-20T14:12:36.511Z,5.41
2022-12-20T14:14:49.879Z,5.34
2022-12-20T14:16:51.636Z,5.29
2022-12-20T14:19:05.310Z,5.23
2022-12-20T14:21:07.383Z,5.22
2022-12-20T14:23:18.826Z,5.23
2022-12-20T14:25:30.259Z,5.14
2022-12-20T14:27:34.948Z,5.08
2022-12-20T14:29:37.685Z,5.02
2022-12-20T14:31:42.064Z,4.98
2022-12-20T14:33:43.820Z,4.99
2022-12-20T14:35:49.580Z,4.97
2022-12-20T14:38:19.263Z,4.86
2022-12-20T14:40:21.573Z,4.82
2022-12-20T14:42:23.378Z,4.78
2022-12-20T14:44:28.358Z,4.79
2022-12-20T14:46:31.211Z,4.81
2022-12-20T14:48:32.949Z,4.78
2022-12-20T14:50:36.599Z,4.68
2022-12-20T14:52:39.513Z,4.64
2022-12-20T14:57:12.516Z,4.47
2022-12-20T14:59:18.326Z,4.43
2022-12-20T15:01:27.782Z,4.42
2022-12-20T15:03:29.913Z,4.37
2022-12-20T15:05:40.974Z,4.41
2022-12-20T15:07:42.682Z,4.36
2022-12-20T15:09:44.373Z,4.36
2022-12-20T15:11:46.865Z,4.32
2022-12-20T15:13:52.543Z,4.28
2022-12-20T15:15:54.261Z,4.23
2022-12-20T15:17:57.204Z,4.24
2022-12-20T15:19:59.552Z,4.24
2022-12-20T15:22:02.007Z,4.20
2022-12-20T15:24:10.262Z,4.18
2022-12-20T15:26:15.386Z,4.19
2022-12-20T15:28:22.743Z,4.19
2022-12-20T15:30:24.578Z,4.19
2022-12-20T15:32:29.746Z,4.22
2022-12-20T15:34:36.590Z,4.21
2022-12-20T15:36:38.742Z,4.14
2022-12-20T15:39:10.768Z,4.07
2022-12-20T15:41:06.528Z,4.06
2022-12-20T15:43:12.629Z,4.03
2022-12-20T15:45:14.778Z,4.04
2022-12-20T15:47:16.976Z,4.05
2022-12-20T15:49:41.974Z,4.04
2022-12-20T15:51:49.403Z,4.04
2022-12-20T15:53:51.196Z,4.04
2022-12-20T15:55:54.139Z,3.94
2022-12-20T15:57:55.745Z,3.92
2022-12-20T16:00:01.023Z,3.95
2022-12-20T16:02:03.826Z,3.99
2022-12-20T16:04:06.492Z,3.98
2022-12-20T16:06:13.099Z,3.94
2022-12-20T16:08:16.491Z,3.93
2022-12-20T16:10:18.326Z,3.91
2022-12-20T16:12:24.761Z,3.92
2022-12-20T16:14:27.661Z,3.91
2022-12-20T16:16:32.083Z,3.89
2022-12-20T16:18:34.921Z,3.84
2022-12-20T16:20:37.069Z,3.81
2022-12-20T16:22:38.740Z,3.75
2022-12-20T16:24:40.782Z,3.74
2022-12-20T16:26:43.263Z,3.65
2022-12-20T16:28:45.745Z,3.61
2022-12-20T16:30:52.953Z,3.59
2022-12-20T16:32:55.387Z,3.53
2022-12-20T16:34:57.052Z,3.47
2022-12-20T16:36:58.707Z,3.48
2022-12-20T16:39:00.384Z,3.39
2022-12-20T16:41:18.486Z,3.40
2022-12-20T16:43:20.092Z,3.40
2022-12-20T16:45:24.360Z,3.42
2022-12-20T16:47:26.457Z,3.48
2022-12-20T16:49:28.368Z,3.51
2022-12-20T16:51:35.724Z,3.51
2022-12-20T16:54:02.181Z,3.46
2022-12-20T16:55:59.198Z,3.45
2022-12-20T16:58:00.987Z,3.48
2022-12-20T17:00:03.096Z,3.49
2022-12-20T17:02:27.511Z,3.41
2022-12-20T17:04:29.342Z,3.33
2022-12-20T17:06:31.239Z,3.23
2022-12-20T17:10:53.008Z,3.17
2022-12-20T17:12:55.290Z,3.18
2022-12-20T17:14:57.039Z,3.21
2022-12-20T17:16:58.773Z,3.24
2022-12-20T17:19:01.525Z,3.21
2022-12-20T17:21:05.122Z,3.24
2022-12-20T17:23:10.040Z,3.24
2022-12-20T17:25:20.780Z,3.25
2022-12-20T17:27:22.504Z,3.25
2022-12-20T17:29:24.125Z,3.27
2022-12-20T17:31:39.581Z,3.25
2022-12-20T17:33:41.285Z,3.24
2022-12-20T17:35:43.923Z,3.22
2022-12-20T17:37:47.864Z,3.19
2022-12-20T17:39:49.480Z,3.13
2022-12-20T17:41:52.278Z,3.04
2022-12-20T17:43:54.755Z,3.00
2022-12-20T17:45:57.749Z,2.99
2022-12-20T17:47:59.642Z,3.06
2022-12-20T17:50:01.331Z,3.06
2022-12-20T17:52:04.221Z,3.09
2022-12-20T17:54:05.946Z,3.14
2022-12-20T17:56:16.294Z,3.17
2022-12-20T17:58:17.904Z,3.17
2022-12-20T18:00:23.716Z,3.20
2022-12-20T18:02:26.317Z,3.16
2022-12-20T18:04:28.513Z,3.04
2022-12-20T18:06:32.032Z,2.74
2022-12-20T18:08:33.765Z,2.63
2022-12-20T18:10:36.659Z,2.61
2022-12-20T18:12:39.112Z,2.50
2022-12-20T18:14:41.004Z,2.34
2022-12-20T18:16:42.811Z,2.42
2022-12-20T18:18:44.730Z,2.05
2022-12-20T18:20:46.454Z,2.08
2022-12-20T18:22:48.775Z,1.89
2022-12-20T18:24:50.510Z,1.90
2022-12-20T18:26:53.472Z,2.01
2022-12-20T18:29:02.236Z,2.11
2022-12-20T18:31:05.993Z,2.02
2022-12-20T18:33:07.773Z,2.05
2022-12-20T18:35:10.007Z,2.03
2022-12-20T18:37:11.745Z,2.15
2022-12-20T18:39:13.935Z,2.28
2022-12-20T18:41:23.966Z,2.35
2022-12-20T18:43:27.505Z,2.41
2022-12-20T18:45:29.255Z,2.37
2022-12-20T18:47:32.515Z,2.37
2022-12-20T18:49:35.073Z,2.34
2022-12-20T18:51:37.369Z,2.36
2022-12-20T18:53:40.801Z,2.39
2022-12-20T18:55:43.813Z,2.38
2022-12-20T18:57:45.532Z,2.37
2022-12-20T18:59:47.480Z,2.40
2022-12-20T19:01:49.869Z,2.49
2022-12-20T19:03:52.701Z,2.51
2022-12-20T19:05:55.569Z,2.56
2022-12-20T19:07:57.427Z,2.52
2022-12-20T19:09:59.180Z,2.51
2022-12-20T19:12:01.002Z,2.52
2022-12-20T19:14:03.845Z,2.53
2022-12-20T19:16:12.081Z,2.59
2022-12-20T19:18:14.425Z,2.64
2022-12-20T19:20:16.603Z,2.66
2022-12-20T19:22:18.531Z,2.67
2022-12-20T19:24:20.170Z,2.65
2022-12-20T19:26:24.388Z,2.58
2022-12-20T19:28:26.223Z,2.54
2022-12-20T19:30:28.095Z,2.34
2022-12-20T19:32:29.973Z,2.09
2022-12-20T19:34:31.658Z,2.12
2022-12-20T19:36:42.141Z,1.94
2022-12-20T19:38:45.678Z,1.71
2022-12-20T19:40:53.930Z,1.78
2022-12-20T19:42:55.804Z,1.87
2022-12-20T19:44:57.480Z,1.93
2022-12-20T19:47:06.046Z,2.03
2022-12-20T19:49:07.939Z,2.10
2022-12-20T19:51:15.682Z,2.15
2022-12-20T19:53:17.386Z,2.19
2022-12-20T19:55:19.107Z,2.19
2022-12-20T19:57:20.787Z,2.21
2022-12-20T19:59:22.796Z,2.26
2022-12-20T20:01:27.182Z,2.32
2022-12-20T20:03:30.896Z,2.32
2022-12-20T20:05:34.944Z,2.19
2022-12-20T20:07:36.576Z,2.22
2022-12-20T20:09:38.874Z,2.24
2022-12-20T20:11:40.761Z,2.23
2022-12-20T20:13:42.465Z,2.22
2022-12-20T20:15:50.793Z,2.22
2022-12-20T20:17:52.502Z,2.23
2022-12-20T20:19:54.242Z,2.23
2022-12-20T20:21:56.152Z,2.24
2022-12-20T20:23:57.858Z,2.23
2022-12-20T20:26:00.211Z,2.17
2022-12-20T20:28:02.983Z,2.19
2022-12-20T20:30:07.101Z,2.13
2022-12-20T20:32:09.183Z,2.10
2022-12-20T20:34:10.929Z,2.08
2022-12-20T20:36:14.457Z,2.08
2022-12-20T20:38:16.196Z,2.03
2022-12-20T20:40:18.297Z,2.09
2022-12-20T20:42:23.400Z,2.09
2022-12-20T20:44:25.701Z,2.08
2022-12-20T20:46:28.338Z,2.09
2022-12-20T20:48:33.424Z,2.13
2022-12-20T20:50:35.167Z,2.12
2022-12-20T20:52:36.905Z,2.13
2022-12-20T20:54:40.029Z,2.14
2022-12-20T20:56:42.107Z,2.16
2022-12-20T20:58:43.926Z,2.14
2022-12-20T21:00:45.569Z,2.16
2022-12-20T21:02:47.576Z,2.08
2022-12-20T21:05:14.391Z,2.05
2022-12-20T21:07:12.810Z,2.08
2022-12-20T21:09:14.944Z,2.05
2022-12-20T21:11:17.433Z,1.98
2022-12-20T21:13:19.389Z,1.97
2022-12-20T21:15:23.255Z,1.81
2022-12-20T21:17:25.482Z,1.64
2022-12-20T21:19:27.118Z,1.42
2022-12-20T21:21:29.063Z,1.34
2022-12-20T21:23:30.647Z,1.24
2022-12-20T21:25:32.636Z,1.13
2022-12-20T21:27:34.366Z,1.13
2022-12-20T21:29:36.137Z,1.17
2022-12-20T21:31:37.788Z,1.25
2022-12-20T21:33:39.960Z,1.34
2022-12-20T21:35:45.166Z,1.39
2022-12-20T21:37:50.135Z,1.45
2022-12-20T21:39:52.428Z,1.49
2022-12-20T21:41:59.958Z,1.56
2022-12-20T21:44:04.672Z,1.58
2022-12-20T21:46:11.287Z,1.62
2022-12-20T21:48:15.557Z,1.66
2022-12-20T21:50:17.259Z,1.67
2022-12-20T21:52:19.166Z,1.60
2022-12-20T21:54:20.919Z,1.58
2022-12-20T21:56:24.330Z,1.60
2022-12-20T21:58:27.629Z,1.63
2022-12-20T22:00:30.387Z,1.62
2022-12-20T22:02:32.206Z,1.68
2022-12-20T22:04:34.704Z,1.52
2022-12-20T22:06:36.383Z,1.35
2022-12-20T22:08:38.105Z,1.36
2022-12-20T22:10:39.848Z,1.40
2022-12-20T22:12:41.619Z,1.45
2022-12-20T22:14:43.282Z,1.46
2022-12-20T22:16:45.111Z,1.50
2022-12-20T22:18:51.495Z,1.49
2022-12-20T22:20:53.280Z,1.47
2022-12-20T22:22:55.013Z,1.47
2022-12-20T22:24:56.633Z,1.47
2022-12-20T22:27:01.992Z,1.49
2022-12-20T22:29:06.481Z,1.55
2022-12-20T22:31:09.412Z,1.58
2022-12-20T22:33:11.770Z,1.58
2022-12-20T22:35:16.422Z,1.58
2022-12-20T22:37:22.824Z,1.61
2022-12-20T22:39:24.558Z,1.60
2022-12-20T22:41:30.765Z,1.63
2022-12-20T22:43:32.564Z,1.56
2022-12-20T22:45:34.369Z,1.56
2022-12-20T22:47:36.322Z,1.64
2022-12-20T22:49:38.057Z,1.66
2022-12-20T22:51:39.743Z,1.69
2022-12-20T22:53:41.950Z,1.66
2022-12-20T22:55:43.568Z,1.70
2022-12-20T22:57:45.190Z,1.74
2022-12-20T22:59:46.831Z,1.71
2022-12-20T23:01:48.595Z,1.72
2022-12-20T23:03:50.651Z,1.71
2022-12-20T23:05:56.796Z,1.73
2022-12-20T23:07:58.535Z,1.55
2022-12-20T23:10:00.373Z,1.32
2022-12-20T23:12:20.573Z,1.17
2022-12-20T23:14:41.811Z,1.15
2022-12-20T23:16:43.688Z,1.20
2022-12-20T23:18:45.394Z,1.25
2022-12-20T23:21:11.115Z,1.27
2022-12-20T23:23:12.766Z,1.33
2022-12-20T23:25:21.168Z,1.38
2022-12-20T23:27:22.791Z,1.37
2022-12-20T23:29:24.691Z,1.39
2022-12-20T23:31:26.324Z,1.37
2022-12-20T23:33:28.296Z,1.36
2022-12-20T23:35:29.949Z,1.37
2022-12-20T23:37:33.571Z,1.39
2022-12-20T23:39:35.218Z,1.40
2022-12-20T23:41:36.901Z,1.40
2022-12-20T23:43:38.748Z,1.42
2022-12-20T23:45:40.350Z,1.44
2022-12-20T23:47:41.999Z,1.44
2022-12-20T23:49:43.639Z,1.44
2022-12-20T23:51:45.324Z,1.46
2022-12-20T23:53:51.191Z,1.36
2022-12-20T23:56:20.288Z,1.42
2022-12-20T23:58:21.988Z,1.39
